Terminal Aerodrome Forecast
Issued by NWS Jackson, MS

Home | Current Version | Previous Version | Text Only | Print | Product List | Glossary On
Versions: 1 2 3 4 5 6 7 8 9 10 11 12 13 14 15
244
FTUS44 KJAN 261727
TAFHBG
TAF
KHBG 261727Z 2618/2718 21005KT 6SM SHRA VCTS FEW025 BKN040CB
     FM270100 VRB03KT P6SM VCSH FEW025 SCT050
     FM271100 00000KT 4SM BR OVC015
     FM271330 06004KT P6SM SCT020=

USA.gov is the U.S. government's official web portal to all federal, state and local government web resources and services.